La Palma > ESTACION METEOROLÓGICA Los Cancajos

DATOS ACTUALES Online

Ultima actulizacion 9 minutos

21.8 ºC

Temperatura

95

Humedad (%)

1013.8

Presión (mb)

40.1

Precipitación (mm)

1.6 WSW

Viento (Km/h)

DATOS DIARIOS

Temperatura últimas 24 horas (ºC)

Humedad últimas 24 horas (%)

Presión atmosférica últimas 24 horas (mb)

Precipitaciones últimas 23 horas (mm)

Viento últimas 24 horas (Km/h)

Hora Temperatura (°C) ºC Precipitación (mm) mm Presión (mb) mb Humedad (%) % Viento (Km/h) km/h
24 - 23:00 22.9 0 1017 72 4.8 SW
25 - 00:00 23.2 0 1017 71 4.8 WSW
25 - 01:00 22.9 0 1017 77 6.4 NNW
25 - 02:00 22.8 0 1017 76 1.6 W
25 - 03:00 22.9 0 1016 74 4.8 W
25 - 04:00 22.9 0 1015 73 3.2 WSW
25 - 05:00 22.7 0 1015 74 0 WSW
25 - 06:00 22.8 0 1015 73 3.2 NNW
25 - 07:00 22.8 0 1015 75 0 SE
25 - 08:00 23 0 1016 78 0 NNW
25 - 09:00 21.9 0.3 1016 84 0 ESE
25 - 10:00 23.4 0 1017 73 8 NNW
25 - 11:00 21.8 0.5 1017 85 3.2 NW
25 - 12:00 21.2 3.8 1017 91 1.6 N
25 - 13:00 21.4 5.6 1016 92 3.2 NNE
25 - 14:00 20.8 6.1 0 92 4.8 N
25 - 15:00 21.1 8.1 1015 93 0 NW
25 - 16:00 21.4 8.9 1014 93 3.2 N
25 - 17:00 21.7 9.7 1014 94 0 N
25 - 18:00 21.8 11.2 1014 93 6.4 NNE
25 - 19:00 21.7 12.2 1014 94 0 SSW
25 - 20:00 21.6 19.1 1014 94 4.8 WSW
25 - 21:00 21.8 21.8 1014 94 1.6 NNE
25 - 22:00 21.7 34.5 1014 95 1.6 NNW
25 - 23:00 21.8 40.1 1014 95 1.6 WSW
Apalmet utiliza cookies propias y de terceros para mejorar la usabilidad y la experiencia web. Política de cookies.